Weather observations for the past three days for
Abilene, Dyess Air Force Base
Imperial (Metric)
Date Time (cdt) Wind (mph) Vis. (mi.) Weather Sky Cond. Temperature (ºF) Relative Humidity Wind Chill (°F) Heat Index (°F) Pressure Precipitation (in)
Air Dwpt 6 hour altimeter (in) sea level (mb) 1 hr 3 hr 6 hr
Max. Min.
05 02:55 S 9 10.00 Fair CLR 78.4 63.9 61% 80 29.93 1010.4
05 01:55 S 10 10.00 Fair CLR 79.5 63.9 59% 81 29.93 1010.4
05 00:55 S 7 10.00 Fair CLR 81.1 62.8 93.9 80.1 54% 82 29.93 1010.4
04 23:55 S 8 10.00 Fair CLR 81.7 62.8 53% 83 29.92 1010.1
04 22:55 S 9 10.00 Fair CLR 84.9 63 48% 86 29.92 1010.1
04 21:55 S 10 10.00 Fair CLR 85.5 64.6 50% 87 29.91 1009.7
04 20:55 S 15 10.00 Fair CLR 88.7 62.6 42% 89 29.88 1008.7
04 19:55 S 17 10.00 Fair CLR 90.9 63.1 40% 92 29.87 1008.5
04 18:55 S 22 G 26 10.00 Fair and Breezy CLR 94.1 64.6 100.6 93.7 38% 96 29.87 1008.3
04 17:55 S 14 10.00 Fair CLR 98.1 64 33% 101 29.83 1006.9
04 16:55 SE 20 10.00 Partly Cloudy SCT070 SCT080 97.3 64.9 35% 100 29.84 1007.3
04 15:55 S 8 10.00 Fair CLR 98.1 63.1 32% 100 29.85 1007.6
04 14:55 SE 10 G 20 10.00 Fair CLR 97.2 66.4 37% 101 29.88 1008.6
04 13:55 S 9 10.00 Fair CLR 96.3 66.4 38% 100 29.9 1009.3
04 12:55 S 15 G 21 10.00 Fair CLR 93.9 66.6 94.1 77.9 41% 97 29.92 1010.0
04 11:55 S 9 G 20 10.00 Fair CLR 90.5 67.5 47% 94 29.94 1010.7
04 10:55 S 14 10.00 Fair CLR 88.5 68 51% 92 29.94 1010.7
04 09:55 S 14 10.00 Fair CLR 86.2 67.5 54% 89 29.94 1010.7
04 08:55 S 14 10.00 Fair CLR 81.5 65.3 58% 83 29.93 1010.4
04 07:55 S 9 10.00 Fair CLR 78.4 64.8 63% 80 29.91 1009.7
04 06:55 S 8 10.00 Fair CLR 79 65.3 86 78.8 63% 81 29.89 1009.0
04 05:55 S 10 10.00 Overcast OVC110 80.4 65.7 61% 82 29.88 1008.6
04 04:55 S 13 10.00 Fair CLR 81.1 66.4 61% 83 29.87 1008.2
04 03:55 S 12 10.00 Fair CLR 81.1 65.8 60% 83 29.87 1008.2
04 02:55 S 17 10.00 Fair CLR 83.1 66.2 57% 85 29.87 1008.2
04 01:55 S 17 10.00 Fair CLR 84.4 65.8 54% 87 29.86 1007.8
03 23:55 SE 16 10.00 Fair CLR 87.6 64.8 47% 89 29.86 1007.8
03 22:55 S 13 10.00 Fair CLR 89.2 64.4 44% 91 29.86 1007.8
03 21:55 SE 12 10.00 Fair CLR 91.4 63 39% 92 29.84 1007.2
03 19:55 SE 12 10.00 Fair CLR 98.2 56.3 25% 97 29.8 1005.9
03 18:55 SE 14 10.00 Fair CLR 100.6 55.9 106 99.9 23% 99 29.79 1005.6
03 17:55 E 15 10.00 Fair CLR 103.3 55.6 21% 102 29.78 1005.2
03 16:55 SE 9 10.00 Fair CLR 102.6 50.9 18% 100 29.78 1005.2
03 15:55 E 6 10.00 Fair CLR 104.9 52.7 18% 103 29.8 1005.8
03 14:55 Calm 10.00 A Few Clouds FEW100 101.1 54 21% 99 29.83 1006.9
03 13:55 SE 5 10.00 Fair CLR 102.4 53.6 20% 100 29.86 1007.8
03 12:55 Calm 10.00 Fair CLR 101.3 54 102.7 75.6 21% 99 29.88 1008.5
03 11:55 SW 9 10.00 Fair CLR 100.4 58.1 25% 100 29.9 1009.2
03 10:55 W 12 10.00 Fair CLR 97 60.3 30% 97 29.9 1009.2
03 09:55 SW 15 G 22 10.00 Fair CLR 92.7 61.7 36% 93 29.89 1008.9
03 08:55 SW 10 10.00 Fair CLR 86.9 63 45% 88 29.9 1009.3
03 07:55 SW 3 10.00 Fair CLR 77.7 63.1 61% 79 29.91 1009.7
03 06:55 Calm 10.00 Fair CLR 76.3 64.4 85.8 74.5 67% 78 29.9 1009.4
03 05:55 S 7 10.00 Fair CLR 77.9 64.8 64% 80 29.9 1009.3
03 04:55 S 8 10.00 Fair CLR 78.1 64.4 63% 80 29.89 1009.0
03 03:55 S 10 10.00 Fair CLR 79.7 63.5 58% 81 29.89 1008.9
03 02:55 S 8 10.00 Fair CLR 81.1 62.4 53% 82 29.91 1009.6
03 01:55 S 14 10.00 Fair CLR 84.6 62.6 48% 85 29.91 1009.6
03 00:55 SE 8 10.00 Fair CLR 86 61.5 99.9 85.6 44% 86 29.91 1009.6
02 23:55 SE 8 10.00 Fair CLR 88 61.3 41% 88 29.91 1009.6
02 22:55 SE 13 10.00 Fair CLR 90 60.1 37% 90 29.91 1009.6
02 21:55 SE 10 10.00 Fair CLR 91.9 59.5 34% 91 29.9 1009.3
02 20:55 SE 9 10.00 Fair CLR 94.3 57 29% 93 29.88 1008.6
02 19:55 SE 9 10.00 Fair CLR 97 56.3 26% 96 29.86 1008.0
02 18:55 E 9 10.00 Light Rain SCT110 100 55.6 102 96.3 23% 99 29.86 1008.0
02 17:55 SE 5 10.00 Fair CLR 100.4 53.2 21% 98 29.86 1007.9
02 16:55 SE 7 10.00 Fair CLR 101.5 52.9 20% 99 29.87 1008.2
02 15:55 S 7 10.00 Fair CLR 100.9 52.3 20% 99 29.89 1009.0
02 14:55 S 3 10.00 Light Rain FEW110 FEW230 101.1 54 21% 99 29.92 1010.0
02 13:55 SE 6 10.00 A Few Clouds FEW110 97.3 55.6 25% 96 29.95 1011.0
02 12:55 Calm 10.00 Partly Cloudy SCT080 95.9 57.6 97.2 76.1 28% 95 29.98 1012.0
02 11:55 Calm 10.00 Fair CLR 95.7 58.3 29% 95 30 1012.7
02 10:55 SW 12 G 17 10.00 Fair CLR 94.3 60.6 33% 94 30.01 1013.0
02 09:55 SW 15 10.00 Fair CLR 90.1 62.4 40% 91 30 1012.7
02 08:55 SW 9 10.00 Fair CLR 84.4 63.1 49% 85 30.01 1013.1
02 07:55 S 7 10.00 Fair CLR 80.4 63.7 57% 82 30 1012.8
02 06:55 S 7 10.00 Fair CLR 75.9 62.8 83.8 75.2 64% 78 29.99 1012.5
02 05:55 S 7 10.00 NULL NULL 77 62.4 61% 79 29.99 1012.4
02 04:55 S 8 10.00 NULL NULL 78.8 61.7 56% 80 29.98 1012.1
02 03:55 S 13 10.00 Fair CLR 80.1 61.3 53% 81 29.99 1012.4
Date Time (cdt) Wind (mph) Vis. (mi.) Weather Sky Cond. Air Dwpt Max. Min. Relative Humidity Wind Chill (°F) Heat Index (°F) altimeter (in) sea level (mb) 1 hr 3 hr 6 hr
6 hour
Temperature (ºF) Pressure Precipitation (in)